createdAt,value
2019-05-20T00:00:44.832Z,100842.33
2019-05-20T00:03:14.262Z,100843.27
2019-05-20T00:05:43.708Z,100841.33
2019-05-20T00:08:13.215Z,100834.20
2019-05-20T00:10:42.963Z,100837.29
2019-05-20T00:13:12.397Z,100832.22
2019-05-20T00:15:41.831Z,100827.00
2019-05-20T00:18:11.332Z,100830.79
2019-05-20T00:20:40.836Z,100820.85
2019-05-20T00:23:10.367Z,100828.31
2019-05-20T00:25:39.802Z,100831.47
2019-05-20T00:28:09.235Z,100830.94
2019-05-20T00:30:38.667Z,100825.36
2019-05-20T00:33:08.467Z,100827.92
2019-05-20T00:35:37.882Z,100830.96
2019-05-20T00:38:07.343Z,100832.72
2019-05-20T00:40:36.777Z,100835.08
2019-05-20T00:43:06.232Z,100829.69
2019-05-20T00:45:35.739Z,100830.34
2019-05-20T00:48:05.178Z,100830.17
2019-05-20T00:50:35.606Z,100827.46
2019-05-20T00:53:05.407Z,100819.28
2019-05-20T00:55:35.628Z,100815.70
2019-05-20T00:58:05.139Z,100819.87
2019-05-20T01:00:35.143Z,100814.76
2019-05-20T01:03:04.852Z,100806.74
2019-05-20T01:05:34.343Z,100809.42
2019-05-20T01:08:03.853Z,100812.48
2019-05-20T01:10:33.355Z,100814.31
2019-05-20T01:13:02.925Z,100818.95
2019-05-20T01:15:32.377Z,100817.50
2019-05-20T01:18:01.798Z,100817.39
2019-05-20T01:20:31.252Z,100813.29
2019-05-20T01:23:01.066Z,100822.88
2019-05-20T01:25:30.490Z,100823.75
2019-05-20T01:28:00.004Z,100825.65
2019-05-20T01:30:29.562Z,100820.91
2019-05-20T01:33:12.748Z,100825.81
2019-05-20T01:35:30.178Z,100825.06
2019-05-20T01:37:59.592Z,100823.46
2019-05-20T01:40:29.046Z,100821.06
2019-05-20T01:42:58.469Z,100818.41
2019-05-20T01:45:27.922Z,100825.88
2019-05-20T01:47:57.349Z,100824.99
2019-05-20T01:50:26.765Z,100829.03
2019-05-20T01:52:56.210Z,100832.34
2019-05-20T01:55:25.720Z,100831.84
2019-05-20T01:57:55.153Z,100833.16
2019-05-20T02:00:24.735Z,100834.41
2019-05-20T02:02:54.514Z,100834.91
2019-05-20T02:05:23.995Z,100834.89
2019-05-20T02:07:53.729Z,100833.00
2019-05-20T02:10:23.307Z,100834.42
2019-05-20T02:12:53.048Z,100832.41
2019-05-20T02:15:24.142Z,100832.52
2019-05-20T02:17:53.585Z,100827.28
2019-05-20T02:20:23.008Z,100829.52
2019-05-20T02:22:54.425Z,100828.11
2019-05-20T02:25:24.230Z,100822.60
2019-05-20T02:27:53.683Z,100823.80
2019-05-20T02:30:23.119Z,100823.21
2019-05-20T02:32:52.531Z,100819.88
2019-05-20T02:35:22.040Z,100822.17
2019-05-20T02:37:51.462Z,100832.70
2019-05-20T02:40:21.341Z,100837.22
2019-05-20T02:42:50.775Z,100838.48
2019-05-20T02:45:20.508Z,100842.39
2019-05-20T02:47:49.972Z,100838.83
2019-05-20T02:50:19.631Z,100838.09
2019-05-20T02:52:49.450Z,100841.36
2019-05-20T02:55:18.940Z,100834.65
2019-05-20T02:57:48.444Z,100830.25
2019-05-20T03:00:18.254Z,100838.42
2019-05-20T03:02:47.675Z,100839.48
2019-05-20T03:05:17.509Z,100839.64
2019-05-20T03:07:46.918Z,100838.28
2019-05-20T03:10:16.599Z,100834.91
2019-05-20T03:12:46.021Z,100838.59
2019-05-20T03:15:15.884Z,100843.39
2019-05-20T03:17:45.326Z,100839.94
2019-05-20T03:20:15.149Z,100837.63
2019-05-20T03:22:45.023Z,100841.90
2019-05-20T03:25:15.278Z,100847.27
2019-05-20T03:27:44.814Z,100848.00
2019-05-20T03:30:14.647Z,100853.47
2019-05-20T03:32:44.090Z,100848.66
2019-05-20T03:35:13.719Z,100850.15
2019-05-20T03:37:43.460Z,100850.64
2019-05-20T03:40:13.450Z,100853.13
2019-05-20T03:42:42.856Z,100857.23
2019-05-20T03:45:12.791Z,100854.81
2019-05-20T03:47:42.284Z,100861.95
2019-05-20T03:50:12.109Z,100861.25
2019-05-20T03:52:41.585Z,100858.41
2019-05-20T03:55:11.144Z,100857.52
2019-05-20T03:57:40.632Z,100855.31
2019-05-20T04:00:10.385Z,100858.03
2019-05-20T04:02:39.813Z,100859.89
2019-05-20T04:05:09.718Z,100858.42
2019-05-20T04:07:39.151Z,100864.51
2019-05-20T04:10:08.710Z,100874.33
2019-05-20T04:12:38.169Z,100883.17
2019-05-20T04:15:08.125Z,100871.50
2019-05-20T04:17:37.674Z,100874.99
2019-05-20T04:20:08.351Z,100882.09
2019-05-20T04:22:39.865Z,100886.17
2019-05-20T04:25:09.151Z,100893.35
2019-05-20T04:27:38.583Z,100887.39
2019-05-20T04:30:08.838Z,100888.20
2019-05-20T04:32:38.637Z,100881.66
2019-05-20T04:35:21.250Z,100890.00
2019-05-20T04:37:39.928Z,100893.11
2019-05-20T04:40:10.084Z,100894.46
2019-05-20T04:42:39.537Z,100903.88
2019-05-20T04:45:09.795Z,100895.70
2019-05-20T04:47:39.221Z,100892.89
2019-05-20T04:50:09.464Z,100889.59
2019-05-20T04:52:38.900Z,100887.78
2019-05-20T04:55:08.765Z,100890.63
2019-05-20T04:57:38.182Z,100888.25
2019-05-20T05:00:09.932Z,100888.72
2019-05-20T05:02:43.229Z,100892.71
2019-05-20T05:05:11.005Z,100894.05
2019-05-20T05:07:40.606Z,100889.41
2019-05-20T05:10:12.341Z,100893.93
2019-05-20T05:12:41.863Z,100903.34
2019-05-20T05:15:11.900Z,100895.51
2019-05-20T05:17:41.371Z,100897.89
2019-05-20T05:20:18.086Z,100899.02
2019-05-20T05:22:42.888Z,100906.22
2019-05-20T05:25:12.581Z,100905.55
2019-05-20T05:27:41.994Z,100904.52
2019-05-20T05:30:11.820Z,100913.08
2019-05-20T05:32:41.577Z,100912.84
2019-05-20T05:35:14.282Z,100911.09
2019-05-20T05:37:43.931Z,100915.39
2019-05-20T05:40:15.053Z,100926.83
2019-05-20T05:42:44.583Z,100922.08
2019-05-20T05:45:15.339Z,100923.31
2019-05-20T05:47:44.786Z,100918.73
2019-05-20T05:50:14.714Z,100925.19
2019-05-20T05:52:44.496Z,100926.38
2019-05-20T05:55:14.182Z,100921.16
2019-05-20T05:57:44.013Z,100922.39
2019-05-20T06:00:13.604Z,100931.28
2019-05-20T06:02:43.288Z,100935.86
2019-05-20T06:05:12.873Z,100931.77
2019-05-20T06:07:42.381Z,100933.06
2019-05-20T06:10:13.117Z,100934.58
2019-05-20T06:12:42.637Z,100939.82
2019-05-20T06:15:12.700Z,100940.80
2019-05-20T06:17:42.134Z,100936.08
2019-05-20T06:20:12.398Z,100928.33
2019-05-20T06:22:41.905Z,100931.34
2019-05-20T06:25:12.946Z,100933.30
2019-05-20T06:27:42.380Z,100939.18
2019-05-20T06:30:17.331Z,100949.20
2019-05-20T06:32:46.760Z,100954.91
2019-05-20T06:35:16.885Z,100959.30
2019-05-20T06:37:48.315Z,100953.18
2019-05-20T06:40:18.135Z,100965.27
2019-05-20T06:42:47.610Z,100958.83
2019-05-20T06:45:17.342Z,100961.27
2019-05-20T06:47:46.852Z,100959.33
2019-05-20T06:50:16.966Z,100961.39
2019-05-20T06:52:46.383Z,100964.28
2019-05-20T06:55:16.055Z,100970.38
2019-05-20T06:57:45.480Z,100972.67
2019-05-20T07:00:22.140Z,100966.75
2019-05-20T07:02:52.220Z,100975.22
2019-05-20T07:05:21.798Z,100966.41
2019-05-20T07:07:51.239Z,100974.33
2019-05-20T07:10:20.732Z,100970.00
2019-05-20T07:12:50.210Z,100970.54
2019-05-20T07:15:19.979Z,100967.78
2019-05-20T07:17:51.749Z,100970.03
2019-05-20T07:20:20.746Z,100977.73
2019-05-20T07:22:55.622Z,100979.92
2019-05-20T07:25:21.945Z,100984.57
2019-05-20T07:27:51.642Z,100980.61
2019-05-20T07:30:21.320Z,100981.46
2019-05-20T07:32:50.832Z,100971.77
2019-05-20T07:35:30.109Z,100969.64
2019-05-20T07:37:51.564Z,100975.91
2019-05-20T07:40:32.260Z,100974.84
2019-05-20T07:43:02.423Z,100975.06
2019-05-20T07:45:34.920Z,100971.47
2019-05-20T07:48:06.262Z,100979.22
2019-05-20T07:50:38.146Z,100982.72
2019-05-20T07:53:08.996Z,100978.02
2019-05-20T07:56:09.771Z,100978.80
2019-05-20T07:58:42.563Z,100975.40
2019-05-20T08:01:12.552Z,100975.32
2019-05-20T08:03:42.043Z,100969.49
2019-05-20T08:06:11.609Z,100969.60
2019-05-20T08:08:41.195Z,100968.90
2019-05-20T08:11:10.686Z,100970.45
2019-05-20T08:13:40.119Z,100979.67
2019-05-20T08:16:09.621Z,100978.92
2019-05-20T08:18:39.043Z,100981.14
2019-05-20T08:21:08.864Z,100984.16
2019-05-20T08:23:38.319Z,100989.86
2019-05-20T08:26:08.038Z,100993.89
2019-05-20T08:28:37.496Z,101000.04
2019-05-20T08:31:07.087Z,101000.66
2019-05-20T08:33:36.612Z,101000.70
2019-05-20T08:36:06.243Z,101005.38
2019-05-20T08:38:35.790Z,101008.53
2019-05-20T08:41:05.277Z,101016.51
2019-05-20T08:43:34.793Z,101019.91
2019-05-20T08:46:04.651Z,101018.38
2019-05-20T08:48:34.146Z,101019.81
2019-05-20T08:51:03.756Z,101020.84
2019-05-20T08:53:33.186Z,101018.75
2019-05-20T08:56:02.644Z,101010.56
2019-05-20T08:58:32.156Z,101010.47
2019-05-20T09:01:01.593Z,101015.26
2019-05-20T09:03:31.387Z,101012.72
2019-05-20T09:06:01.179Z,101016.11
2019-05-20T09:08:30.713Z,101016.22
2019-05-20T09:11:00.123Z,101006.67
2019-05-20T09:13:30.001Z,101010.71
2019-05-20T09:15:59.493Z,101016.93
2019-05-20T09:18:28.944Z,101014.54
2019-05-20T09:20:58.412Z,101017.58
2019-05-20T09:23:27.832Z,101010.94
2019-05-20T09:25:57.347Z,101009.45
2019-05-20T09:28:26.837Z,101010.17
2019-05-20T09:30:56.408Z,101008.31
2019-05-20T09:33:26.616Z,101017.34
2019-05-20T09:35:56.417Z,101017.92
2019-05-20T09:38:25.868Z,101022.36
2019-05-20T09:40:55.410Z,101026.21
2019-05-20T09:43:30.897Z,101020.54
2019-05-20T09:46:07.673Z,101024.13
2019-05-20T09:48:31.696Z,101030.37
2019-05-20T09:51:01.475Z,101018.73
2019-05-20T09:53:31.100Z,101027.48
2019-05-20T09:56:00.839Z,101030.25
2019-05-20T09:58:30.249Z,101030.00
2019-05-20T10:00:59.698Z,101035.62
2019-05-20T10:03:29.124Z,101029.11
2019-05-20T10:05:58.702Z,101030.80
2019-05-20T10:08:38.064Z,101026.05
2019-05-20T10:11:00.472Z,101031.41
2019-05-20T10:13:30.108Z,101025.72
2019-05-20T10:15:59.663Z,101033.65
2019-05-20T10:18:37.563Z,101033.91
2019-05-20T10:21:00.388Z,101042.58
2019-05-20T10:23:29.879Z,101040.14
2019-05-20T10:25:59.367Z,101044.72
2019-05-20T10:28:29.062Z,101047.48
2019-05-20T10:30:58.596Z,101055.66
2019-05-20T10:33:28.364Z,101057.63
2019-05-20T10:35:57.780Z,101064.07
2019-05-20T10:38:27.233Z,101064.72
2019-05-20T10:40:56.700Z,101063.18
2019-05-20T10:43:26.174Z,101060.84
2019-05-20T10:45:56.074Z,101063.63
2019-05-20T10:48:25.889Z,101060.70
2019-05-20T10:50:55.313Z,101063.34
2019-05-20T10:53:28.138Z,101064.86
2019-05-20T10:55:56.027Z,101074.41
2019-05-20T10:58:25.545Z,101069.11
2019-05-20T11:01:02.646Z,101063.93
2019-05-20T11:03:26.497Z,101067.67
2019-05-20T11:05:55.954Z,101079.25
2019-05-20T11:08:27.882Z,101079.89
2019-05-20T11:10:56.936Z,101087.58
2019-05-20T11:13:26.435Z,101086.38
2019-05-20T11:15:55.887Z,101096.48
2019-05-20T11:18:25.309Z,101101.94
2019-05-20T11:20:55.050Z,101094.08
2019-05-20T11:23:24.486Z,101096.11
2019-05-20T11:25:53.901Z,101095.70
2019-05-20T11:28:23.393Z,101096.50
2019-05-20T11:30:52.909Z,101098.47
2019-05-20T11:33:22.343Z,101102.80
2019-05-20T11:35:51.794Z,101100.39
2019-05-20T11:38:21.276Z,101101.09
2019-05-20T11:40:50.882Z,101109.94
2019-05-20T11:43:20.652Z,101111.96
2019-05-20T11:45:50.095Z,101109.55
2019-05-20T11:48:19.534Z,101114.84
2019-05-20T11:50:48.949Z,101112.98
2019-05-20T11:53:18.479Z,101112.87
2019-05-20T11:55:47.898Z,101114.63
2019-05-20T11:58:17.405Z,101113.48
2019-05-20T12:00:46.832Z,101113.69
2019-05-20T12:03:16.253Z,101118.99
2019-05-20T12:05:45.706Z,101125.75
2019-05-20T12:08:15.564Z,101127.39
2019-05-20T12:10:45.578Z,101131.87
2019-05-20T12:13:14.980Z,101132.67
2019-05-20T12:15:44.400Z,101134.97
2019-05-20T12:18:13.848Z,101140.89
2019-05-20T12:20:43.345Z,101144.05
2019-05-20T12:23:12.795Z,101147.66
2019-05-20T12:25:42.278Z,101146.72
2019-05-20T12:28:11.816Z,101142.05
2019-05-20T12:30:41.508Z,101137.83
2019-05-20T12:33:18.498Z,101142.09
2019-05-20T12:35:42.178Z,101136.64
2019-05-20T12:38:11.605Z,101140.36
2019-05-20T12:40:41.610Z,101142.11
2019-05-20T12:43:11.121Z,101146.34
2019-05-20T12:45:40.535Z,101151.28
2019-05-20T12:48:09.977Z,101153.67
2019-05-20T12:50:39.425Z,101152.89
2019-05-20T12:53:08.879Z,101149.66
2019-05-20T12:55:38.641Z,101151.47
2019-05-20T12:58:08.069Z,101153.81
2019-05-20T13:00:37.519Z,101152.07
2019-05-20T13:03:06.957Z,101158.33
2019-05-20T13:05:36.413Z,101149.45
2019-05-20T13:08:05.994Z,101152.56
2019-05-20T13:10:35.472Z,101153.23
2019-05-20T13:13:04.924Z,101152.31
2019-05-20T13:15:34.471Z,101158.66
2019-05-20T13:18:04.205Z,101153.25
2019-05-20T13:20:33.969Z,101150.05
2019-05-20T13:23:06.592Z,101151.23
2019-05-20T13:25:35.050Z,101153.05
2019-05-20T13:28:04.591Z,101153.50
2019-05-20T13:30:34.177Z,101152.66
2019-05-20T13:33:03.868Z,101150.53
2019-05-20T13:35:33.432Z,101151.14
2019-05-20T13:38:03.140Z,101153.25
2019-05-20T13:40:45.911Z,101154.34
2019-05-20T13:43:03.745Z,101153.90
2019-05-20T13:45:33.788Z,101148.27
2019-05-20T13:48:03.544Z,101154.09
2019-05-20T13:50:32.983Z,101153.57
2019-05-20T13:53:02.478Z,101152.27
2019-05-20T13:55:32.256Z,101152.98
2019-05-20T13:58:01.706Z,101148.13
2019-05-20T14:00:31.216Z,101154.07
2019-05-20T14:03:00.809Z,101150.47
2019-05-20T14:05:30.364Z,101155.47
2019-05-20T14:07:59.784Z,101151.66
2019-05-20T14:10:29.223Z,101148.13
2019-05-20T14:12:58.676Z,101150.41
2019-05-20T14:15:28.238Z,101155.28
2019-05-20T14:17:58.047Z,101155.48
2019-05-20T14:20:27.543Z,101161.31
2019-05-20T14:22:56.973Z,101161.40
2019-05-20T14:25:29.117Z,101161.26
2019-05-20T14:27:57.560Z,101158.30
2019-05-20T14:30:27.003Z,101159.27
2019-05-20T14:32:56.440Z,101163.39
2019-05-20T14:35:25.849Z,101167.54
2019-05-20T14:37:55.292Z,101165.87
2019-05-20T14:40:24.715Z,101163.57
2019-05-20T14:42:54.159Z,101168.50
2019-05-20T14:45:23.606Z,101166.38
2019-05-20T14:47:53.026Z,101167.47
2019-05-20T14:50:22.461Z,101173.20
2019-05-20T14:52:51.941Z,101174.91
2019-05-20T14:55:21.456Z,101171.63
2019-05-20T14:57:50.883Z,101170.95
2019-05-20T15:00:20.895Z,101173.92
2019-05-20T15:02:50.448Z,101171.99
2019-05-20T15:05:19.951Z,101167.38
2019-05-20T15:07:49.641Z,101169.47
2019-05-20T15:10:19.800Z,101173.34
2019-05-20T15:12:49.256Z,101173.88
2019-05-20T15:15:18.972Z,101171.80
2019-05-20T15:17:48.392Z,101171.33
2019-05-20T15:20:17.908Z,101181.31
2019-05-20T15:22:47.330Z,101176.48
2019-05-20T15:25:17.012Z,101177.25
2019-05-20T15:27:49.708Z,101183.44
2019-05-20T15:30:18.007Z,101179.71
2019-05-20T15:32:47.446Z,101178.86
2019-05-20T15:35:17.002Z,101178.73
2019-05-20T15:37:46.517Z,101178.73
2019-05-20T15:40:17.182Z,101174.88
2019-05-20T15:42:46.610Z,101177.05
2019-05-20T15:45:18.689Z,101179.71
2019-05-20T15:47:48.115Z,101182.45
2019-05-20T15:50:18.700Z,101181.47
2019-05-20T15:52:48.149Z,101184.42
2019-05-20T15:55:17.743Z,101188.75
2019-05-20T15:57:47.191Z,101186.25
2019-05-20T16:00:17.027Z,101196.57
2019-05-20T16:02:46.460Z,101190.19
2019-05-20T16:05:16.028Z,101188.16
2019-05-20T16:07:45.476Z,101188.45
2019-05-20T16:10:15.335Z,101186.48
2019-05-20T16:12:44.769Z,101186.85
2019-05-20T16:15:14.586Z,101194.78
2019-05-20T16:17:48.014Z,101197.89
2019-05-20T16:20:15.896Z,101192.05
2019-05-20T16:22:45.420Z,101193.03
2019-05-20T16:25:15.181Z,101200.13
2019-05-20T16:27:44.615Z,101199.42
2019-05-20T16:30:14.797Z,101198.48
2019-05-20T16:32:44.640Z,101204.70
2019-05-20T16:35:14.294Z,101203.94
2019-05-20T16:37:43.761Z,101202.07
2019-05-20T16:40:13.538Z,101210.03
2019-05-20T16:42:44.881Z,101204.64
2019-05-20T16:45:15.906Z,101198.78
2019-05-20T16:47:45.336Z,101210.43
2019-05-20T16:50:17.951Z,101204.64
2019-05-20T16:52:47.403Z,101203.86
2019-05-20T16:55:17.038Z,101198.80
2019-05-20T16:57:46.476Z,101203.17
2019-05-20T17:00:30.995Z,101204.81
2019-05-20T17:02:47.876Z,101209.52
2019-05-20T17:05:17.529Z,101207.42
2019-05-20T17:07:46.929Z,101216.27
2019-05-20T17:10:16.539Z,101219.13
2019-05-20T17:12:45.953Z,101209.56
2019-05-20T17:15:16.315Z,101211.86
2019-05-20T17:17:45.746Z,101214.09
2019-05-20T17:20:15.479Z,101217.73
2019-05-20T17:22:44.918Z,101214.77
2019-05-20T17:25:14.487Z,101227.17
2019-05-20T17:27:43.942Z,101235.39
2019-05-20T17:30:13.661Z,101231.98
2019-05-20T17:32:43.199Z,101229.53
2019-05-20T17:35:13.166Z,101235.66
2019-05-20T17:37:42.640Z,101226.55
2019-05-20T17:40:12.897Z,101229.87
2019-05-20T17:42:42.317Z,101229.37
2019-05-20T17:45:14.344Z,101227.31
2019-05-20T17:47:43.912Z,101222.73
2019-05-20T17:50:14.239Z,101218.91
2019-05-20T17:52:43.693Z,101221.65
2019-05-20T17:55:13.351Z,101225.25
2019-05-20T17:57:43.104Z,101222.59
2019-05-20T18:00:15.068Z,101223.41
2019-05-20T18:02:44.499Z,101221.71
2019-05-20T18:05:15.017Z,101227.95
2019-05-20T18:07:44.661Z,101225.82
2019-05-20T18:10:16.395Z,101226.92
2019-05-20T18:12:45.942Z,101228.11
2019-05-20T18:15:22.415Z,101226.04
2019-05-20T18:17:47.976Z,101227.08
2019-05-20T18:20:17.534Z,101228.50
2019-05-20T18:22:47.079Z,101232.34
2019-05-20T18:25:16.632Z,101231.62
2019-05-20T18:27:46.114Z,101229.85
2019-05-20T18:30:16.349Z,101240.51
2019-05-20T18:32:45.872Z,101236.14
2019-05-20T18:35:15.538Z,101240.41
2019-05-20T18:37:44.950Z,101243.34
2019-05-20T18:40:16.494Z,101249.45
2019-05-20T18:42:45.927Z,101247.47
2019-05-20T18:45:15.781Z,101256.55
2019-05-20T18:47:45.392Z,101251.05
2019-05-20T18:50:15.555Z,101254.25
2019-05-20T18:52:45.058Z,101255.19
2019-05-20T18:55:14.819Z,101250.53
2019-05-20T18:57:44.357Z,101257.49
2019-05-20T19:00:14.779Z,101253.69
2019-05-20T19:02:44.189Z,101260.63
2019-05-20T19:05:13.970Z,101266.75
2019-05-20T19:07:43.699Z,101262.72
2019-05-20T19:10:15.395Z,101265.02
2019-05-20T19:12:44.927Z,101273.11
2019-05-20T19:15:16.124Z,101272.56
2019-05-20T19:17:45.635Z,101276.30
2019-05-20T19:20:15.689Z,101273.54
2019-05-20T19:22:45.967Z,101280.75
2019-05-20T19:25:15.641Z,101289.58
2019-05-20T19:27:45.054Z,101296.30
2019-05-20T19:30:15.046Z,101293.52
2019-05-20T19:32:44.529Z,101290.17
2019-05-20T19:35:14.133Z,101295.11
2019-05-20T19:37:43.550Z,101295.89
2019-05-20T19:40:13.445Z,101298.88
2019-05-20T19:42:42.864Z,101305.23
2019-05-20T19:45:12.638Z,101306.03
2019-05-20T19:47:42.150Z,101313.52
2019-05-20T19:50:12.209Z,101319.61
2019-05-20T19:52:41.737Z,101326.77
2019-05-20T19:55:11.960Z,101323.66
2019-05-20T19:57:41.663Z,101329.55
2019-05-20T20:00:11.528Z,101331.92
2019-05-20T20:02:40.958Z,101334.29
2019-05-20T20:05:10.937Z,101330.16
2019-05-20T20:07:40.370Z,101335.41
2019-05-20T20:10:10.115Z,101334.66
2019-05-20T20:12:39.662Z,101337.52
2019-05-20T20:15:11.127Z,101331.48
2019-05-20T20:17:40.574Z,101339.51
2019-05-20T20:20:10.136Z,101339.23
2019-05-20T20:22:39.647Z,101344.47
2019-05-20T20:25:09.723Z,101345.23
2019-05-20T20:27:39.221Z,101347.83
2019-05-20T20:30:09.687Z,101348.42
2019-05-20T20:32:39.115Z,101349.06
2019-05-20T20:35:09.515Z,101357.23
2019-05-20T20:37:38.949Z,101356.59
2019-05-20T20:40:08.774Z,101351.35
2019-05-20T20:42:38.349Z,101353.24
2019-05-20T20:45:08.040Z,101350.37
2019-05-20T20:47:41.914Z,101355.75
2019-05-20T20:50:09.203Z,101351.67
2019-05-20T20:52:38.757Z,101349.05
2019-05-20T20:55:08.908Z,101354.06
2019-05-20T20:57:38.425Z,101360.56
2019-05-20T21:00:11.593Z,101362.70
2019-05-20T21:02:52.751Z,101360.00
2019-05-20T21:05:12.896Z,101359.70
2019-05-20T21:07:42.426Z,101366.27
2019-05-20T21:10:12.164Z,101370.52
2019-05-20T21:12:41.608Z,101364.97
2019-05-20T21:15:12.470Z,101367.27
2019-05-20T21:17:41.919Z,101375.63
2019-05-20T21:20:11.586Z,101373.62
2019-05-20T21:22:40.993Z,101375.80
2019-05-20T21:25:10.598Z,101376.67
2019-05-20T21:27:40.025Z,101376.03
2019-05-20T21:30:10.582Z,101384.00
2019-05-20T21:32:40.007Z,101381.81
2019-05-20T21:35:09.514Z,101384.84
2019-05-20T21:37:39.116Z,101392.56
2019-05-20T21:40:09.396Z,101395.42
2019-05-20T21:42:38.833Z,101395.95
2019-05-20T21:45:08.505Z,101394.98
2019-05-20T21:47:38.008Z,101394.70
2019-05-20T21:50:08.166Z,101394.52
2019-05-20T21:52:37.598Z,101396.84
2019-05-20T21:55:09.364Z,101402.66
2019-05-20T21:57:38.796Z,101403.95
2019-05-20T22:00:10.643Z,101409.73
2019-05-20T22:02:40.171Z,101407.74
2019-05-20T22:05:09.736Z,101412.83
2019-05-20T22:07:39.612Z,101412.02
2019-05-20T22:10:09.676Z,101423.73
2019-05-20T22:12:39.407Z,101420.16
2019-05-20T22:15:09.176Z,101421.47
2019-05-20T22:17:38.599Z,101421.02
2019-05-20T22:20:08.245Z,101428.33
2019-05-20T22:22:39.324Z,101425.88
2019-05-20T22:25:08.984Z,101421.36
2019-05-20T22:27:38.432Z,101424.74
2019-05-20T22:30:10.765Z,101423.52
2019-05-20T22:32:40.200Z,101426.76
2019-05-20T22:35:09.774Z,101421.00
2019-05-20T22:37:39.279Z,101430.62
2019-05-20T22:40:09.046Z,101423.27
2019-05-20T22:42:38.511Z,101423.10
2019-05-20T22:45:08.323Z,101421.52
2019-05-20T22:47:37.757Z,101419.49
2019-05-20T22:50:07.764Z,101416.09
2019-05-20T22:52:37.212Z,101414.78
2019-05-20T22:55:07.689Z,101410.22
2019-05-20T22:57:39.411Z,101406.70
2019-05-20T23:00:10.166Z,101409.37
2019-05-20T23:02:39.644Z,101404.11
2019-05-20T23:05:09.622Z,101403.23
2019-05-20T23:07:39.054Z,101405.48
2019-05-20T23:10:09.179Z,101402.05
2019-05-20T23:12:38.661Z,101407.36
2019-05-20T23:15:09.097Z,101406.48
2019-05-20T23:17:38.529Z,101404.89
2019-05-20T23:20:08.385Z,101405.09
2019-05-20T23:22:37.797Z,101405.02
2019-05-20T23:25:07.495Z,101399.27
2019-05-20T23:27:36.914Z,101400.98
2019-05-20T23:30:08.644Z,101398.84
2019-05-20T23:32:38.083Z,101406.77
2019-05-20T23:35:08.531Z,101399.64
2019-05-20T23:37:37.980Z,101404.74
2019-05-20T23:40:07.737Z,101401.34
2019-05-20T23:42:37.174Z,101400.30
2019-05-20T23:45:11.076Z,101402.14
2019-05-20T23:47:40.491Z,101402.20
2019-05-20T23:50:10.347Z,101404.77
2019-05-20T23:52:39.768Z,101408.27
2019-05-20T23:55:13.475Z,101413.50
2019-05-20T23:57:43.427Z,101410.16
